This is the latest recevied weather packets stored in our database for station/object OK2ILA-10. If no packets are shown the sender has not sent any weather packets the latest 10 day(s).
| Time | Temp. | Humidity | Pressure | Rain* | Wind** | Luminosity | Snow |
|---|---|---|---|---|---|---|---|
| 1777984007 | 23.89° C | 35% | 1009.8 hPa | - | - | - | - |
| 1777983410 | 23.33° C | 36% | 1009.9 hPa | - | - | - | - |
| 1777983406 | 23.33° C | 36% | 1009.9 hPa | - | - | - | - |
| 1777982810 | 24.44° C | 34% | 1009.9 hPa | - | - | - | - |
| 1777982806 | 24.44° C | 34% | 1009.9 hPa | - | - | - | - |
| 1777982210 | 25° C | 35% | 1010 hPa | - | - | - | - |
| 1777982206 | 25° C | 35% | 1010 hPa | - | - | - | - |
| 1777981610 | 23.89° C | 38% | 1010 hPa | - | - | - | - |
| 1777981606 | 23.89° C | 38% | 1010 hPa | - | - | - | - |
| 1777981009 | 23.33° C | 38% | 1010.1 hPa | - | - | - | - |
| 1777981006 | 23.33° C | 38% | 1010.1 hPa | - | - | - | - |
| 1777980409 | 23.33° C | 38% | 1010.1 hPa | - | - | - | - |
| 1777980405 | 23.33° C | 38% | 1010.1 hPa | - | - | - | - |
| 1777979809 | 22.78° C | 40% | 1010.1 hPa | - | - | - | - |
| 1777979805 | 22.78° C | 40% | 1010.1 hPa | - | - | - | - |
| 1777979209 | 22.78° C | 39% | 1010.4 hPa | - | - | - | - |
| 1777979205 | 22.78° C | 39% | 1010.4 hPa | - | - | - | - |
| 1777978609 | 23.33° C | 38% | 1010.3 hPa | - | - | - | - |
| 1777978605 | 23.33° C | 38% | 1010.3 hPa | - | - | - | - |
| 1777978008 | 23.33° C | 37% | 1010.3 hPa | - | - | - | - |
| 1777978005 | 23.33° C | 37% | 1010.3 hPa | - | - | - | - |
| 1777977408 | 23.89° C | 36% | 1010.4 hPa | - | - | - | - |
| 1777977404 | 23.89° C | 36% | 1010.4 hPa | - | - | - | - |
| 1777976808 | 22.78° C | 37% | 1010.4 hPa | - | - | - | - |
| 1777976804 | 22.78° C | 37% | 1010.4 hPa | - | - | - | - |
* Rain since midnight (hover to see other rain measurements)
** Current wind speed in m/s (hover to see current wind gust speed)